CheckWX is a tool to help pilots better visualize weather data.  It is not intended as a substitute for an official pre-flight weather briefing.

21:39:03 UTC

KSWF TAF
Stewart International Airport
New York, New York, USA
KSWF 201930Z 2020/2124 19007KT P6SM SCT150 FM210200 VRB04KT P6SM BKN050 OVC100 FM211200 11004KT 5SM BR BKN050 OVC100 FM211500 12006KT 4SM -RA BR BKN020 OVC035 AMD NOT SKED

Mar-20@
20:00 UTC

Mar-20 @ 20:00 UTC

Mar-21@
02:00 UTC

Mar-21 @ 02:00 UTC

KSWF 201930Z 2020/2124 19007KT P6SM SCT150
Wind
  • 190° at 7 KTS
Cloud Levels
  • Scattered at 15,000' AGL

Mar-21@
02:00 UTC

Mar-21 @ 02:00 UTC

Mar-21@
12:00 UTC

Mar-21 @ 12:00 UTC

FM210200 VRB04KT P6SM BKN050 OVC100

From

From Standard forecast or significant change

Wind
  • Variable at 4 KTS
Cloud Levels
  • Broken at 5,000' AGL
  • Overcast at 10,000' AGL

Mar-21@
12:00 UTC

Mar-21 @ 12:00 UTC

Mar-21@
15:00 UTC

Mar-21 @ 15:00 UTC

FM211200 11004KT 5SM BR BKN050 OVC100

From

From Standard forecast or significant change

Wind
  • 110° at 4 KTS
Conditions
Mist
Cloud Levels
  • Broken at 5,000' AGL
  • Overcast at 10,000' AGL

Mar-21@
15:00 UTC

Mar-21 @ 15:00 UTC

Mar-22@
00:00 UTC

Mar-22 @ 00:00 UTC

FM211500 12006KT 4SM -RA BR BKN020 OVC035 AMD NOT SKED

From

From Standard forecast or significant change

Wind
  • 120° at 6 KTS
Conditions
Light Rain, Mist
Cloud Levels
  • Broken at 2,000' AGL
  • Overcast at 3,500' AGL